Time;durP1;ratioP1;P1;durP2;ratioP2;P2;SDS_P1;SDS_P2;PMS_P1;PMS_P2;Temp;Humidity;BMP_temperature;BMP_pressure;BME280_temperature;BME280_humidity;BME280_pressure;Samples;Min_cycle;Max_cycle;Signal;HPM_P1;HPM_P2
2022/08/25 00:00:07;;;;;;;23.23;15.20;;;;;;;21.57;100.00;99473.34;4976511;28;20251;-88
2022/08/25 00:02:34;;;;;;;20.45;15.68;;;;;;;21.62;100.00;99474.09;4977137;28;20231;-87
2022/08/25 00:05:03;;;;;;;26.85;16.35;;;;;;;21.61;100.00;99467.00;4964338;28;20235;-88
2022/08/25 00:07:30;;;;;;;29.08;16.52;;;;;;;21.52;100.00;99477.75;4958675;28;20231;-88
2022/08/25 00:09:56;;;;;;;24.55;15.88;;;;;;;21.42;100.00;99471.66;4977007;28;20239;-86
2022/08/25 00:12:23;;;;;;;22.92;15.75;;;;;;;21.34;100.00;99467.69;4992298;28;20318;-87
2022/08/25 00:14:49;;;;;;;18.85;15.43;;;;;;;21.30;100.00;99466.66;4963163;28;20318;-87
2022/08/25 00:17:16;;;;;;;20.50;15.63;;;;;;;21.24;100.00;99464.28;4980487;28;20259;-87
2022/08/25 00:19:43;;;;;;;21.83;15.98;;;;;;;21.21;100.00;99462.97;4978261;28;20232;-88
2022/08/25 00:22:10;;;;;;;25.02;16.92;;;;;;;21.15;100.00;99466.03;4993489;28;20258;-88
2022/08/25 00:24:36;;;;;;;24.58;16.58;;;;;;;21.10;100.00;99462.25;4978450;28;20243;-87
2022/08/25 00:27:04;;;;;;;21.35;16.35;;;;;;;21.07;100.00;99465.56;5001100;28;20321;-88
2022/08/25 00:29:31;;;;;;;24.33;16.98;;;;;;;21.03;100.00;99461.81;4957410;28;20231;-88
2022/08/25 00:31:58;;;;;;;21.05;16.92;;;;;;;21.09;100.00;99457.06;4990239;28;20321;-87
2022/08/25 00:34:33;;;;;;;20.23;16.33;;;;;;;20.99;100.00;99454.50;4955028;28;20255;-88
2022/08/25 00:37:00;;;;;;;22.67;16.52;;;;;;;20.90;100.00;99465.22;4971796;28;20226;-88
2022/08/25 00:39:27;;;;;;;23.33;16.50;;;;;;;20.90;100.00;99459.75;4953113;28;20254;-87
2022/08/25 00:41:55;;;;;;;21.10;16.50;;;;;;;20.85;100.00;99459.84;4985995;28;20240;-90
2022/08/25 00:44:24;;;;;;;20.45;16.25;;;;;;;20.79;100.00;99454.75;4970043;28;20248;-88
2022/08/25 00:46:53;;;;;;;20.55;17.00;;;;;;;20.77;100.00;99457.75;4947454;28;20231;-89
2022/08/25 00:49:27;;;;;;;22.50;17.75;;;;;;;20.74;100.00;99457.53;4966702;28;20294;-87
2022/08/25 00:51:59;;;;;;;24.02;17.52;;;;;;;20.71;100.00;99458.13;4955224;28;20239;-90
2022/08/25 00:54:31;;;;;;;25.10;17.92;;;;;;;20.72;100.00;99462.47;4970881;28;20299;-91
2022/08/25 00:56:59;;;;;;;22.85;16.90;;;;;;;20.74;100.00;99447.47;4969429;28;20706;-86
2022/08/25 00:59:27;;;;;;;25.30;17.67;;;;;;;20.76;100.00;99449.91;4951435;28;20238;-86
2022/08/25 01:01:54;;;;;;;20.50;16.52;;;;;;;20.75;100.00;99457.25;4969803;28;20267;-86
2022/08/25 01:04:22;;;;;;;25.50;18.00;;;;;;;20.75;100.00;99453.72;4966866;28;20783;-89
2022/08/25 01:06:49;;;;;;;25.55;17.73;;;;;;;20.71;100.00;99450.78;4954547;28;20557;-88
2022/08/25 01:09:16;;;;;;;24.25;17.67;;;;;;;20.73;100.00;99456.72;4983295;28;20243;-88
2022/08/25 01:11:44;;;;;;;21.52;17.38;;;;;;;20.73;100.00;99445.00;4991593;28;20949;-90
2022/08/25 01:14:13;;;;;;;23.02;17.02;;;;;;;20.68;100.00;99440.44;4964845;28;20311;-89
2022/08/25 01:16:42;;;;;;;20.65;16.70;;;;;;;20.66;100.00;99439.94;4970135;28;20320;-87
2022/08/25 01:19:11;;;;;;;23.00;16.67;;;;;;;20.60;100.00;99443.81;4977576;28;20330;-87
2022/08/25 01:21:43;;;;;;;20.50;16.40;;;;;;;20.59;100.00;99440.28;4974534;28;20232;-87
2022/08/25 01:24:15;;;;;;;25.17;17.65;;;;;;;20.57;100.00;99437.03;4947469;28;20314;-87
2022/08/25 01:26:42;;;;;;;28.70;17.45;;;;;;;20.58;100.00;99433.19;4973563;28;20235;-87
2022/08/25 01:29:21;;;;;;;24.02;17.25;;;;;;;20.55;100.00;99433.78;4966172;28;20259;-86
2022/08/25 01:31:49;;;;;;;21.42;17.40;;;;;;;20.53;100.00;99429.75;4955867;28;20240;-87
2022/08/25 01:34:17;;;;;;;23.83;17.45;;;;;;;20.45;100.00;99428.47;4985802;28;20242;-86
2022/08/25 01:36:44;;;;;;;20.55;16.85;;;;;;;20.48;100.00;99427.09;4954600;28;20228;-88
2022/08/25 01:39:12;;;;;;;22.02;16.80;;;;;;;20.46;100.00;99427.38;4953756;28;20290;-88
2022/08/25 01:41:38;;;;;;;24.23;17.60;;;;;;;20.45;100.00;99423.00;4965939;28;20319;-88
2022/08/25 01:44:06;;;;;;;20.83;17.02;;;;;;;20.42;100.00;99418.16;4985615;28;20238;-88
2022/08/25 01:46:41;;;;;;;23.50;17.17;;;;;;;20.37;100.00;99423.66;4952219;28;20311;-87
2022/08/25 01:49:09;;;;;;;21.20;16.83;;;;;;;20.37;100.00;99420.13;4982326;28;20238;-88
2022/08/25 01:51:45;;;;;;;23.02;17.00;;;;;;;20.35;100.00;99422.31;4967883;28;20239;-88
2022/08/25 01:54:12;;;;;;;22.15;17.38;;;;;;;20.33;100.00;99419.91;4984512;28;20234;-87
2022/08/25 01:56:39;;;;;;;22.63;17.13;;;;;;;20.31;100.00;99427.53;4952077;28;20702;-88
2022/08/25 01:59:05;;;;;;;27.23;18.08;;;;;;;20.26;100.00;99418.56;4969825;28;20263;-88
2022/08/25 02:01:33;;;;;;;22.23;17.77;;;;;;;20.22;100.00;99430.03;4967101;28;20321;-88
2022/08/25 02:04:00;;;;;;;22.85;17.30;;;;;;;20.19;100.00;99427.91;4999035;28;20732;-87
2022/08/25 02:06:31;;;;;;;22.88;17.45;;;;;;;20.21;100.00;99431.13;4982651;28;20231;-86
2022/08/25 02:09:04;;;;;;;21.42;16.85;;;;;;;20.22;100.00;99427.31;4980124;28;20245;-87
2022/08/25 02:11:32;;;;;;;19.83;15.95;;;;;;;20.23;100.00;99425.41;4963483;28;20235;-87
2022/08/25 02:13:59;;;;;;;23.67;18.48;;;;;;;20.25;100.00;99434.06;4994118;28;20314;-85
2022/08/25 02:16:31;;;;;;;21.40;17.55;;;;;;;20.27;100.00;99425.63;4999098;28;20271;-86
2022/08/25 02:18:59;;;;;;;19.58;16.77;;;;;;;20.26;100.00;99430.25;4961281;28;20243;-86
2022/08/25 02:21:25;;;;;;;24.08;17.80;;;;;;;20.27;100.00;99425.63;4962650;28;20245;-86
2022/08/25 02:23:52;;;;;;;24.15;17.17;;;;;;;20.30;100.00;99428.59;4952681;28;20291;-85
2022/08/25 02:26:19;;;;;;;21.88;17.20;;;;;;;20.28;100.00;99427.25;4959288;28;20315;-86
2022/08/25 02:28:46;;;;;;;24.42;17.92;;;;;;;20.27;100.00;99422.91;4957629;28;20227;-86
2022/08/25 02:31:14;;;;;;;20.90;17.83;;;;;;;20.28;100.00;99424.53;4977800;28;20238;-86
2022/08/25 02:33:41;;;;;;;22.08;17.38;;;;;;;20.28;100.00;99424.53;4958670;28;20245;-87
2022/08/25 02:36:08;;;;;;;21.02;17.13;;;;;;;20.29;100.00;99423.44;4983653;28;20238;-87
2022/08/25 02:38:34;;;;;;;22.65;18.23;;;;;;;20.28;100.00;99421.81;4948914;28;20327;-85
2022/08/25 02:41:19;;;;;;;22.20;17.52;;;;;;;20.27;100.00;99421.00;4952665;28;20676;-86
2022/08/25 02:43:47;;;;;;;22.05;18.67;;;;;;;20.22;100.00;99412.91;4962178;28;20235;-87
2022/08/25 02:46:15;;;;;;;25.52;19.02;;;;;;;20.22;100.00;99423.78;4964854;28;20245;-86
2022/08/25 02:48:43;;;;;;;22.13;17.98;;;;;;;20.21;100.00;99417.53;4951708;28;20480;-86
2022/08/25 02:51:11;;;;;;;19.42;17.25;;;;;;;20.20;100.00;99413.16;4966394;28;20242;-87
2022/08/25 02:53:39;;;;;;;22.67;17.73;;;;;;;20.19;100.00;99411.56;4982473;28;20246;-87
2022/08/25 02:56:08;;;;;;;21.50;17.70;;;;;;;20.20;100.00;99417.81;4980378;28;20226;-85
2022/08/25 02:58:36;;;;;;;19.67;17.03;;;;;;;20.19;100.00;99410.75;4980059;28;20230;-87
2022/08/25 03:01:04;;;;;;;20.45;16.45;;;;;;;20.18;100.00;99411.84;4968854;28;20287;-88
2022/08/25 03:03:31;;;;;;;22.10;17.83;;;;;;;20.16;100.00;99414.84;4963951;28;20579;-87
2022/08/25 03:06:03;;;;;;;22.27;16.97;;;;;;;20.17;100.00;99408.31;4969375;28;20247;-86
2022/08/25 03:08:29;;;;;;;22.63;17.77;;;;;;;20.15;100.00;99409.72;4961315;28;20321;-85
2022/08/25 03:10:56;;;;;;;24.60;17.73;;;;;;;20.15;100.00;99409.72;5000711;28;20230;-85
2022/08/25 03:13:23;;;;;;;21.47;18.37;;;;;;;20.12;100.00;99408.38;4968025;28;20732;-85
2022/08/25 03:15:49;;;;;;;23.05;17.88;;;;;;;20.13;100.00;99409.19;4995507;28;20316;-87
2022/08/25 03:18:17;;;;;;;19.73;16.90;;;;;;;20.11;100.00;99412.19;4964764;28;20253;-87
2022/08/25 03:20:44;;;;;;;22.90;18.40;;;;;;;20.11;100.00;99408.69;4997352;28;20690;-87
2022/08/25 03:23:11;;;;;;;22.70;17.25;;;;;;;20.09;100.00;99406.22;4946556;28;20318;-87
2022/08/25 03:28:30;;;;;;;20.27;16.93;;;;;;;20.08;100.00;99407.31;4985580;28;20237;-87
2022/08/25 03:30:57;;;;;;;23.40;18.27;;;;;;;20.03;100.00;99403.84;4950861;28;20333;-84
2022/08/25 03:33:29;;;;;;;19.95;17.75;;;;;;;20.02;100.00;99408.47;4980620;28;20321;-86
2022/08/25 03:35:56;;;;;;;21.13;18.07;;;;;;;20.03;100.00;99404.66;4980002;28;20232;-87
2022/08/25 03:38:24;;;;;;;24.53;18.03;;;;;;;19.96;100.00;99404.19;4943296;28;20245;-87
2022/08/25 03:40:51;;;;;;;21.67;17.67;;;;;;;20.00;100.00;99398.97;4943825;28;20235;-86
2022/08/25 03:43:18;;;;;;;20.83;17.70;;;;;;;20.01;100.00;99397.88;4982216;28;20273;-86
2022/08/25 03:45:46;;;;;;;22.45;18.30;;;;;;;20.00;100.00;99402.50;4977083;28;20313;-85
2022/08/25 03:48:15;;;;;;;19.90;17.47;;;;;;;20.02;100.00;99402.22;4966140;28;20295;-86
2022/08/25 03:50:49;;;;;;;24.85;17.70;;;;;;;20.00;100.00;99399.78;4977414;28;20238;-87
2022/08/25 03:53:18;;;;;;;20.47;17.77;;;;;;;19.98;100.00;99395.72;4961147;28;20244;-85
2022/08/25 03:55:45;;;;;;;19.40;17.30;;;;;;;19.99;100.00;99400.06;4996847;28;20325;-87
2022/08/25 03:58:12;;;;;;;23.02;17.67;;;;;;;20.02;100.00;99403.03;4959970;28;20262;-86
2022/08/25 04:00:39;;;;;;;20.70;18.55;;;;;;;20.02;100.00;99399.50;4976972;28;20244;-87
2022/08/25 04:03:06;;;;;;;19.73;17.70;;;;;;;20.00;100.00;99410.66;4963467;28;20237;-87
2022/08/25 04:05:33;;;;;;;20.43;17.90;;;;;;;19.99;100.00;99408.22;4982078;28;20238;-88
2022/08/25 04:08:00;;;;;;;21.35;17.80;;;;;;;20.02;100.00;99405.75;4979099;28;20741;-87
2022/08/25 04:10:28;;;;;;;19.65;17.30;;;;;;;20.05;100.00;99407.09;4993159;28;20257;-86
2022/08/25 04:12:54;;;;;;;20.67;17.42;;;;;;;20.09;100.00;99410.84;4978123;28;20235;-87
2022/08/25 04:15:21;;;;;;;19.90;17.80;;;;;;;20.14;100.00;99408.09;4965470;28;20237;-87
2022/08/25 04:17:48;;;;;;;21.57;17.03;;;;;;;20.19;100.00;99410.75;4984317;28;20262;-87
2022/08/25 04:20:17;;;;;;;20.88;16.73;;;;;;;20.23;100.00;99403.66;4963789;28;20251;-86
2022/08/25 04:22:44;;;;;;;20.50;16.88;;;;;;;20.31;100.00;99408.47;4976290;28;20291;-87
2022/08/25 04:25:11;;;;;;;19.42;17.30;;;;;;;20.38;100.00;99408.16;4965621;28;20325;-87
2022/08/25 04:27:38;;;;;;;19.60;17.60;;;;;;;20.44;100.00;99412.41;4948352;28;20285;-87
2022/08/25 04:30:06;;;;;;;19.45;16.63;;;;;;;20.52;100.00;99411.78;4985676;28;20288;-87
2022/08/25 04:32:34;;;;;;;21.48;17.17;;;;;;;20.60;100.00;99414.69;4979776;28;20313;-87
2022/08/25 04:35:02;;;;;;;19.45;16.27;;;;;;;20.73;100.00;99406.91;4977347;28;20244;-86
2022/08/25 04:37:28;;;;;;;20.42;17.67;;;;;;;20.80;100.00;99408.19;4951579;28;20313;-86
2022/08/25 04:39:55;;;;;;;19.15;17.05;;;;;;;20.81;100.00;99409.00;4962389;28;20326;-86
2022/08/25 04:42:22;;;;;;;20.27;17.08;;;;;;;20.85;100.00;99408.13;4980241;28;20265;-85
2022/08/25 04:44:48;;;;;;;20.27;17.08;;;;;;;21.00;100.00;99413.34;4995636;28;20584;-87
2022/08/25 04:47:15;;;;;;;20.42;16.75;;;;;;;21.10;100.00;99418.66;4996695;28;20238;-87
2022/08/25 04:49:42;;;;;;;23.40;16.58;;;;;;;21.17;100.00;99417.53;4948045;28;20235;-86
2022/08/25 04:52:08;;;;;;;20.88;16.17;;;;;;;21.18;100.00;99416.44;4974702;28;20235;-86
2022/08/25 04:54:40;;;;;;;18.50;16.23;;;;;;;21.23;100.00;99411.69;4991994;28;20234;-86
2022/08/25 04:57:07;;;;;;;19.48;16.73;;;;;;;21.27;100.00;99415.47;4975285;28;20243;-86
2022/08/25 04:59:34;;;;;;;19.63;17.23;;;;;;;21.29;100.00;99413.25;4958260;28;20250;-86
2022/08/25 05:02:01;;;;;;;19.73;16.30;;;;;;;21.36;100.00;99415.63;4991001;28;20230;-85
2022/08/25 05:04:29;;;;;;;19.27;16.85;;;;;;;21.36;100.00;99423.78;4973419;28;20682;-85
2022/08/25 05:06:56;;;;;;;18.67;16.65;;;;;;;21.34;100.00;99410.44;4974214;28;20699;-86
2022/08/25 05:09:23;;;;;;;18.48;16.27;;;;;;;21.39;100.00;99415.00;4976751;28;20232;-86
2022/08/25 05:11:51;;;;;;;18.55;16.65;;;;;;;21.41;100.00;99410.91;4944219;28;20231;-85
2022/08/25 05:14:21;;;;;;;19.17;16.73;;;;;;;21.48;100.00;99413.25;4978113;28;20239;-86
2022/08/25 05:16:52;;;;;;;19.20;17.00;;;;;;;21.51;100.00;99409.91;4997823;28;20310;-85
2022/08/25 05:19:19;;;;;;;18.67;16.83;;;;;;;21.58;100.00;99412.28;4980592;28;20317;-85
2022/08/25 05:21:45;;;;;;;18.73;16.73;;;;;;;21.62;100.00;99413.28;4989778;28;20289;-85
2022/08/25 05:24:12;;;;;;;19.05;16.70;;;;;;;21.60;100.00;99413.63;4990941;28;20326;-85
2022/08/25 05:26:39;;;;;;;19.10;16.67;;;;;;;21.55;100.00;99407.44;4940227;28;20254;-85
2022/08/25 05:29:06;;;;;;;19.33;17.00;;;;;;;21.51;100.00;99418.09;4957551;28;20318;-84
2022/08/25 05:31:34;;;;;;;21.42;16.65;;;;;;;21.46;100.00;99415.47;4973649;28;20240;-83
2022/08/25 05:34:07;;;;;;;19.38;17.17;;;;;;;21.42;100.00;99419.88;4957250;28;20322;-84
2022/08/25 05:36:34;;;;;;;19.83;16.77;;;;;;;21.41;100.00;99423.72;4990284;28;20236;-84
2022/08/25 05:39:01;;;;;;;18.27;16.38;;;;;;;21.38;100.00;99425.09;4989103;28;20286;-84
2022/08/25 05:41:29;;;;;;;20.15;16.33;;;;;;;21.41;100.00;99423.72;4990209;28;20323;-84
2022/08/25 05:43:56;;;;;;;18.13;16.13;;;;;;;21.43;100.00;99424.22;4990262;28;20338;-84
2022/08/25 05:46:23;;;;;;;21.25;16.92;;;;;;;21.44;100.00;99423.13;4957314;28;20286;-84
2022/08/25 05:48:50;;;;;;;20.17;16.35;;;;;;;21.46;100.00;99426.38;4972098;28;20235;-84
2022/08/25 05:51:17;;;;;;;18.95;16.85;;;;;;;21.51;100.00;99424.34;4973313;28;20231;-84
2022/08/25 05:53:47;;;;;;;17.58;15.80;;;;;;;21.55;100.00;99421.88;4990141;28;20741;-83
2022/08/25 05:56:14;;;;;;;18.73;16.35;;;;;;;21.72;100.00;99430.31;4988295;28;20694;-84
2022/08/25 05:58:42;;;;;;;21.00;16.95;;;;;;;21.86;100.00;99428.44;4987593;28;20235;-84
2022/08/25 06:03:55;;;;;;;21.65;16.23;;;;;;;22.52;100.00;99419.09;4974152;28;20235;-83
2022/08/25 06:06:23;;;;;;;17.63;15.80;;;;;;;23.02;100.00;99416.44;4980542;28;20662;-84
2022/08/25 06:08:50;;;;;;;20.30;16.10;;;;;;;23.35;100.00;99412.41;4998604;28;20259;-84
2022/08/25 06:11:18;;;;;;;19.42;15.95;;;;;;;23.42;100.00;99412.81;5000514;28;20289;-83
2022/08/25 06:13:45;;;;;;;18.20;15.80;;;;;;;23.63;100.00;99413.97;4998973;28;20336;-84
2022/08/25 06:16:11;;;;;;;19.10;15.50;;;;;;;23.99;100.00;99410.31;4982572;28;20347;-84
2022/08/25 06:18:38;;;;;;;18.73;14.18;;;;;;;24.32;100.00;99411.66;4980845;28;20245;-83
2022/08/25 06:21:10;;;;;;;18.23;15.88;;;;;;;24.41;100.00;99414.44;5000644;28;20249;-84
2022/08/25 06:23:37;;;;;;;19.42;15.30;;;;;;;24.37;100.00;99418.94;4981526;28;20293;-84
2022/08/25 06:26:04;;;;;;;17.05;14.98;;;;;;;24.52;100.00;99419.31;4992607;28;20281;-84
2022/08/25 06:28:30;;;;;;;17.80;15.30;;;;;;;24.46;100.00;99417.03;4987967;28;20262;-84
2022/08/25 06:30:59;;;;;;;19.63;15.20;;;;;;;24.43;100.00;99417.69;4990834;28;20235;-83
2022/08/25 06:33:26;;;;;;;23.30;18.77;;;;;;;23.69;100.00;99423.66;4996515;28;20237;-83
2022/08/25 06:35:54;;;;;;;20.98;17.15;;;;;;;23.86;100.00;99414.75;4998644;28;20263;-82
2022/08/25 06:38:22;;;;;;;20.92;16.17;;;;;;;23.74;100.00;99424.66;4982907;28;20274;-84
2022/08/25 06:40:50;;;;;;;18.25;16.30;;;;;;;23.76;100.00;99414.19;4952764;28;20231;-82
2022/08/25 06:43:20;;;;;;;21.45;17.92;;;;;;;24.05;100.00;99422.75;4976453;28;20229;-85
2022/08/25 06:45:47;;;;;;;24.30;19.08;;;;;;;24.20;100.00;99424.31;4993936;28;20237;-85
2022/08/25 06:48:14;;;;;;;26.20;18.52;;;;;;;24.52;100.00;99426.72;4987300;28;20333;-85
2022/08/25 06:50:42;;;;;;;25.23;20.00;;;;;;;24.16;100.00;99426.91;4990174;28;20236;-85
2022/08/25 06:53:08;;;;;;;24.10;20.42;;;;;;;24.14;100.00;99429.91;4990632;28;20229;-85
2022/08/25 06:55:35;;;;;;;26.30;20.55;;;;;;;23.73;100.00;99439.44;4971322;28;20265;-85
2022/08/25 06:58:03;;;;;;;28.40;19.92;;;;;;;23.58;100.00;99443.34;4989461;28;20314;-84
2022/08/25 07:00:31;;;;;;;21.73;18.13;;;;;;;23.78;100.00;99437.41;4974440;28;20239;-84
2022/08/25 07:02:59;;;;;;;22.17;19.42;;;;;;;23.90;100.00;99434.09;4979697;28;20223;-84
2022/08/25 07:05:28;;;;;;;24.50;19.17;;;;;;;24.09;100.00;99437.44;4991641;28;20254;-84
2022/08/25 07:08:10;;;;;;;22.35;19.20;;;;;;;24.02;100.00;99439.81;4981913;28;20261;-85
2022/08/25 07:10:37;;;;;;;24.13;18.25;;;;;;;24.16;100.00;99446.06;4996121;28;20705;-85
2022/08/25 07:13:04;;;;;;;22.98;19.58;;;;;;;24.13;100.00;99446.63;4999634;28;20238;-84
2022/08/25 07:15:31;;;;;;;24.60;19.42;;;;;;;24.42;100.00;99446.19;4997519;28;20241;-84
2022/08/25 07:17:57;;;;;;;25.83;19.02;;;;;;;24.53;100.00;99442.84;4997907;28;20313;-84
2022/08/25 07:20:24;;;;;;;21.70;18.15;;;;;;;25.03;100.00;99447.22;4997537;28;20257;-84
2022/08/25 07:22:56;;;;;;;20.85;17.98;;;;;;;25.09;100.00;99448.69;4994431;28;20233;-85
2022/08/25 07:25:23;;;;;;;21.10;17.77;;;;;;;25.51;100.00;99447.94;5001291;28;20323;-85
2022/08/25 07:27:50;;;;;;;21.00;18.45;;;;;;;25.29;100.00;99457.09;5000229;28;20286;-85
2022/08/25 07:30:22;;;;;;;21.33;18.00;;;;;;;25.40;100.00;99449.38;4968484;28;20249;-84
2022/08/25 07:32:49;;;;;;;22.45;18.45;;;;;;;25.43;100.00;99446.78;4998768;28;20257;-84
2022/08/25 07:35:23;;;;;;;23.05;17.48;;;;;;;25.83;100.00;99455.72;5000695;28;20604;-84
2022/08/25 07:37:55;;;;;;;18.90;16.40;;;;;;;26.38;100.00;99451.41;4963553;28;20238;-84
2022/08/25 07:40:30;;;;;;;18.95;15.77;;;;;;;26.68;100.00;99450.34;4983848;28;20241;-84
2022/08/25 07:43:00;;;;;;;19.63;17.35;;;;;;;26.87;100.00;99450.78;4982990;28;20781;-84
2022/08/25 07:45:29;;;;;;;19.42;17.50;;;;;;;26.93;100.00;99446.69;5001750;28;20326;-84
2022/08/25 07:48:02;;;;;;;20.05;16.70;;;;;;;26.86;100.00;99449.16;4982474;28;20633;-85
2022/08/25 07:50:30;;;;;;;18.63;15.52;;;;;;;26.83;99.82;99440.75;4996630;28;20235;-85
2022/08/25 07:52:57;;;;;;;18.98;16.02;;;;;;;26.58;100.00;99454.25;4982381;28;20235;-84
2022/08/25 07:55:25;;;;;;;17.83;14.02;;;;;;;26.81;93.78;99445.75;4999238;28;20773;-84
2022/08/25 07:57:54;;;;;;;23.23;15.20;;;;;;;27.39;89.17;99442.97;4993017;28;20231;-84
2022/08/25 08:00:26;;;;;;;20.23;14.93;;;;;;;27.99;82.71;99442.50;4999323;28;20243;-84
2022/08/25 08:02:53;;;;;;;19.52;15.43;;;;;;;28.33;78.72;99443.28;4963121;28;20230;-84
2022/08/25 08:05:20;;;;;;;15.52;13.93;;;;;;;29.01;74.29;99440.84;4978269;28;20231;-85
2022/08/25 08:07:49;;;;;;;17.42;13.15;;;;;;;29.69;68.92;99441.72;4995113;28;20235;-83
2022/08/25 08:10:16;;;;;;;16.13;12.93;;;;;;;29.88;66.72;99443.84;4994102;28;20257;-85
2022/08/25 08:13:03;;;;;;;17.88;14.70;;;;;;;29.30;67.87;99437.84;4981961;28;20772;-85
2022/08/25 08:15:33;;;;;;;18.38;12.32;;;;;;;29.38;68.93;99450.69;4985344;28;20349;-85
2022/08/25 08:18:00;;;;;;;18.33;13.20;;;;;;;28.85;71.56;99449.78;4978105;28;20262;-84
2022/08/25 08:20:32;;;;;;;16.30;12.88;;;;;;;28.92;71.71;99448.44;4965975;28;20227;-85
2022/08/25 08:23:09;;;;;;;17.95;12.60;;;;;;;28.66;74.50;99445.97;4965077;28;20255;-85
2022/08/25 08:25:36;;;;;;;14.40;12.30;;;;;;;29.02;70.47;99450.72;4963906;28;20317;-84
2022/08/25 08:28:02;;;;;;;16.80;13.10;;;;;;;29.00;69.56;99439.22;4980087;28;20231;-84
2022/08/25 08:30:33;;;;;;;18.73;13.00;;;;;;;29.06;68.93;99444.16;4977970;28;20262;-84
2022/08/25 08:33:00;;;;;;;16.42;12.98;;;;;;;29.58;67.19;99443.41;4974507;28;20232;-84
2022/08/25 08:35:38;;;;;;;15.20;12.30;;;;;;;29.63;66.39;99438.41;4961839;28;20238;-83
2022/08/25 08:38:05;;;;;;;15.05;11.77;;;;;;;29.65;65.91;99436.13;4975661;28;20311;-84
2022/08/25 08:42:15;;;;;;;14.23;11.70;;;;;;;29.38;66.33;99433.31;4994642;28;20242;-84
2022/08/25 08:43:36;;;;;;;15.40;11.05;;;;;;;29.33;68.10;99431.63;4978825;28;20801;-85
2022/08/25 08:46:06;;;;;;;15.20;11.25;;;;;;;28.12;75.30;99437.84;4961367;28;20220;-84
2022/08/25 08:48:39;;;;;;;13.57;10.40;;;;;;;28.24;72.54;99432.38;4995913;28;20250;-84
2022/08/25 08:51:20;;;;;;;16.30;10.35;;;;;;;27.84;74.73;99437.63;4997092;28;20235;-85
2022/08/25 08:54:00;;;;;;;15.15;10.95;;;;;;;28.57;71.87;99437.81;4985829;28;20251;-85
2022/08/25 08:56:42;;;;;;;18.90;11.00;;;;;;;29.21;69.11;99437.09;4985934;28;20297;-84
2022/08/25 08:59:20;;;;;;;14.48;11.68;;;;;;;29.35;69.03;99428.50;4972440;28;20318;-85
2022/08/25 09:02:00;;;;;;;15.55;11.55;;;;;;;28.89;72.64;99419.56;5000028;28;20238;-85
2022/08/25 09:04:43;;;;;;;15.57;12.13;;;;;;;28.39;72.54;99422.63;4997070;28;20237;-84
2022/08/25 09:07:13;;;;;;;14.40;12.38;;;;;;;28.56;72.84;99424.38;4986794;28;20263;-85
2022/08/25 09:09:42;;;;;;;14.73;11.32;;;;;;;28.78;70.50;99427.53;4966450;28;20794;-85
2022/08/25 09:12:12;;;;;;;14.50;10.18;;;;;;;29.22;68.85;99425.72;4987456;28;20243;-84
2022/08/25 09:15:08;;;;;;;14.38;10.45;;;;;;;29.18;67.14;99424.81;4971603;28;20238;-85
2022/08/25 09:17:45;;;;;;;12.88;9.57;;;;;;;28.87;66.57;99428.22;4978003;28;20243;-83
2022/08/25 09:20:49;;;;;;;12.02;9.57;;;;;;;28.67;68.29;99415.31;4982229;28;20224;-85
2022/08/25 09:23:35;;;;;;;10.85;9.30;;;;;;;28.75;67.47;99414.41;4956357;28;20726;-83
2022/08/25 09:26:07;;;;;;;10.52;9.32;;;;;;;28.87;67.66;99413.63;4995771;28;20241;-85
2022/08/25 09:28:40;;;;;;;12.55;10.02;;;;;;;28.53;68.97;99409.34;5007188;28;20234;-84
2022/08/25 09:31:21;;;;;;;16.15;10.20;;;;;;;28.15;70.36;99401.34;4979079;28;20678;-85
2022/08/25 09:33:56;;;;;;;14.70;9.98;;;;;;;28.12;71.16;99398.50;4971118;28;20245;-85
2022/08/25 09:36:23;;;;;;;15.70;10.05;;;;;;;28.06;71.23;99395.13;4968646;28;20309;-85
2022/08/25 09:38:50;;;;;;;14.38;12.40;;;;;;;27.39;80.25;99392.69;4970121;28;20243;-85
2022/08/25 09:41:43;;;;;;;17.92;12.27;;;;;;;27.94;78.22;99397.84;4998973;28;20656;-84
2022/08/25 09:44:24;;;;;;;15.80;11.38;;;;;;;28.18;76.25;99386.13;4996184;28;20236;-85
2022/08/25 09:47:26;;;;;;;14.68;11.52;;;;;;;28.01;76.71;99379.63;4984355;28;20257;-85
2022/08/25 09:50:00;;;;;;;14.40;11.40;;;;;;;28.10;75.54;99385.03;4998704;28;20317;-85
2022/08/25 09:52:36;;;;;;;15.75;12.25;;;;;;;27.97;73.72;99380.63;5000886;28;20697;-85
2022/08/25 09:55:15;;;;;;;16.38;11.48;;;;;;;28.27;73.60;99387.63;5002624;28;20659;-85
2022/08/25 09:57:41;;;;;;;13.85;10.35;;;;;;;28.40;71.55;99380.97;4992236;28;20365;-80
2022/08/25 10:00:12;;;;;;;13.07;10.15;;;;;;;29.17;66.65;99381.84;4989908;28;20699;-84
2022/08/25 10:02:40;;;;;;;13.35;10.30;;;;;;;29.85;63.19;99381.84;4990274;28;20282;-84
2022/08/25 10:05:27;;;;;;;10.57;9.43;;;;;;;30.43;59.51;99373.88;4970636;28;20231;-84
2022/08/25 10:07:57;;;;;;;10.55;8.75;;;;;;;30.88;56.85;99373.41;4972649;28;20311;-84
2022/08/25 10:10:28;;;;;;;14.93;9.82;;;;;;;30.60;55.96;99374.38;4972648;28;20293;-84
2022/08/25 10:12:59;;;;;;;12.68;9.30;;;;;;;30.41;58.24;99368.72;4972397;28;20239;-84
2022/08/25 10:15:34;;;;;;;11.98;9.82;;;;;;;30.56;57.28;99367.94;4956954;28;20263;-82
2022/08/25 10:18:19;;;;;;;12.93;10.77;;;;;;;29.74;62.88;99359.47;4988833;28;20227;-81
2022/08/25 10:21:10;;;;;;;14.30;10.55;;;;;;;29.87;62.45;99359.38;4989972;28;20242;-84
2022/08/25 10:23:50;;;;;;;13.65;10.23;;;;;;;30.54;59.21;99356.44;4990212;28;20238;-84
2022/08/25 10:26:43;;;;;;;15.05;9.88;;;;;;;29.90;60.20;99362.28;4970123;28;20227;-84
2022/08/25 10:29:22;;;;;;;12.85;10.05;;;;;;;29.87;61.59;99351.91;4942518;28;20223;-84
2022/08/25 10:31:56;;;;;;;10.43;9.35;;;;;;;30.44;57.87;99356.94;4972462;28;20247;-84
2022/08/25 10:34:38;;;;;;;15.15;10.18;;;;;;;30.05;58.87;99352.44;4972634;28;20238;-85
2022/08/25 10:37:34;;;;;;;11.63;10.38;;;;;;;29.34;62.73;99344.13;4986767;28;20238;-84
2022/08/25 10:40:22;;;;;;;11.82;9.60;;;;;;;29.47;64.56;99356.72;4986275;28;20600;-84
2022/08/25 10:43:01;;;;;;;12.48;10.60;;;;;;;28.85;63.59;99341.47;4987707;28;20235;-84
2022/08/25 10:45:44;;;;;;;13.05;9.45;;;;;;;29.86;59.73;99346.75;4975655;28;20330;-86
2022/08/25 10:48:32;;;;;;;11.20;9.27;;;;;;;29.90;58.65;99345.72;4983066;28;20224;-83
2022/08/25 10:51:17;;;;;;;12.10;9.27;;;;;;;29.93;58.52;99338.69;4999912;28;20231;-83
2022/08/25 10:53:54;;;;;;;11.27;9.35;;;;;;;30.28;56.95;99338.78;4990830;28;20674;-83
2022/08/25 10:56:26;;;;;;;13.30;9.82;;;;;;;30.56;56.73;99333.97;4971745;28;20227;-84
2022/08/25 10:59:06;;;;;;;13.13;9.00;;;;;;;30.16;57.14;99342.44;4976388;28;20235;-84
2022/08/25 11:01:55;;;;;;;10.65;9.23;;;;;;;30.37;56.77;99334.69;4962948;28;20231;-83
2022/08/25 11:04:35;;;;;;;12.27;8.85;;;;;;;30.54;55.39;99326.03;4991695;28;20765;-84
2022/08/25 11:07:12;;;;;;;12.00;8.93;;;;;;;31.19;52.77;99323.53;4975209;28;20326;-83
2022/08/25 11:09:44;;;;;;;12.07;8.88;;;;;;;31.39;51.07;99329.88;4975461;28;20319;-83
2022/08/25 11:12:14;;;;;;;10.88;8.38;;;;;;;31.28;51.45;99321.34;4975593;28;20282;-84
2022/08/25 11:14:56;;;;;;;9.93;8.60;;;;;;;31.10;52.79;99313.84;4992996;28;20706;-84
2022/08/25 11:17:31;;;;;;;11.77;8.70;;;;;;;31.07;52.86;99312.63;4958580;28;20599;-83
2022/08/25 11:20:07;;;;;;;9.10;8.18;;;;;;;30.44;54.60;99312.72;4974719;28;20223;-80
2022/08/25 11:22:41;;;;;;;12.45;8.55;;;;;;;30.17;55.67;99317.22;4990773;28;20245;-83
2022/08/25 11:25:31;;;;;;;10.50;7.97;;;;;;;30.54;53.68;99312.22;4991730;28;20247;-83
2022/08/25 11:28:11;;;;;;;10.32;7.68;;;;;;;30.91;50.79;99311.84;4975839;28;20243;-83
2022/08/25 11:30:39;;;;;;;11.27;8.40;;;;;;;30.40;53.22;99305.50;4974793;28;20254;-83
2022/08/25 11:33:06;;;;;;;11.63;8.15;;;;;;;30.75;52.59;99300.81;4959158;28;20239;-83